sensor_id;sensor_type;location;lat;lon;timestamp;P1;durP1;ratioP1;P2;durP2;ratioP2
66523;SDS011;53350;52.210;5.160;2023-05-23T00:01:40;25.92;;;9.50;;
66523;SDS011;53350;52.210;5.160;2023-05-23T00:04:07;19.13;;;8.95;;
66523;SDS011;53350;52.210;5.160;2023-05-23T00:06:34;18.20;;;7.70;;
66523;SDS011;53350;52.210;5.160;2023-05-23T00:09:02;18.30;;;8.75;;
66523;SDS011;53350;52.210;5.160;2023-05-23T00:11:30;25.70;;;10.90;;
66523;SDS011;53350;52.210;5.160;2023-05-23T00:13:57;22.10;;;9.85;;
66523;SDS011;53350;52.210;5.160;2023-05-23T00:16:25;27.73;;;11.63;;
66523;SDS011;53350;52.210;5.160;2023-05-23T00:18:51;30.35;;;10.88;;
66523;SDS011;53350;52.210;5.160;2023-05-23T00:21:18;24.45;;;11.68;;
66523;SDS011;53350;52.210;5.160;2023-05-23T00:23:44;21.90;;;11.70;;
66523;SDS011;53350;52.210;5.160;2023-05-23T00:26:10;25.60;;;11.27;;
66523;SDS011;53350;52.210;5.160;2023-05-23T00:28:38;30.00;;;13.00;;
66523;SDS011;53350;52.210;5.160;2023-05-23T00:31:05;31.05;;;12.15;;
66523;SDS011;53350;52.210;5.160;2023-05-23T00:33:31;23.50;;;9.55;;
66523;SDS011;53350;52.210;5.160;2023-05-23T00:35:58;22.95;;;12.10;;
66523;SDS011;53350;52.210;5.160;2023-05-23T00:38:24;21.33;;;9.65;;
66523;SDS011;53350;52.210;5.160;2023-05-23T00:40:52;19.27;;;10.13;;
66523;SDS011;53350;52.210;5.160;2023-05-23T00:43:18;21.55;;;10.82;;
66523;SDS011;53350;52.210;5.160;2023-05-23T00:45:48;24.27;;;10.70;;
66523;SDS011;53350;52.210;5.160;2023-05-23T00:48:14;27.95;;;11.40;;
66523;SDS011;53350;52.210;5.160;2023-05-23T00:50:41;24.73;;;10.25;;
66523;SDS011;53350;52.210;5.160;2023-05-23T00:53:08;17.67;;;9.05;;
66523;SDS011;53350;52.210;5.160;2023-05-23T00:55:34;17.70;;;8.05;;
66523;SDS011;53350;52.210;5.160;2023-05-23T00:58:01;16.17;;;7.32;;
66523;SDS011;53350;52.210;5.160;2023-05-23T01:00:27;18.42;;;8.07;;
66523;SDS011;53350;52.210;5.160;2023-05-23T01:02:55;13.50;;;5.60;;
66523;SDS011;53350;52.210;5.160;2023-05-23T01:05:22;15.98;;;6.60;;
66523;SDS011;53350;52.210;5.160;2023-05-23T01:07:49;13.75;;;6.22;;
66523;SDS011;53350;52.210;5.160;2023-05-23T01:10:17;12.35;;;5.65;;
66523;SDS011;53350;52.210;5.160;2023-05-23T01:12:49;11.75;;;6.20;;
66523;SDS011;53350;52.210;5.160;2023-05-23T01:15:29;14.10;;;6.43;;
66523;SDS011;53350;52.210;5.160;2023-05-23T01:18:04;10.73;;;5.50;;
66523;SDS011;53350;52.210;5.160;2023-05-23T01:20:37;15.65;;;5.75;;
66523;SDS011;53350;52.210;5.160;2023-05-23T01:23:12;12.90;;;5.82;;
66523;SDS011;53350;52.210;5.160;2023-05-23T01:25:54;13.50;;;6.22;;
66523;SDS011;53350;52.210;5.160;2023-05-23T01:28:36;12.45;;;5.75;;
66523;SDS011;53350;52.210;5.160;2023-05-23T01:31:09;10.80;;;5.80;;
66523;SDS011;53350;52.210;5.160;2023-05-23T01:33:36;11.25;;;5.32;;
66523;SDS011;53350;52.210;5.160;2023-05-23T01:36:05;10.40;;;5.78;;
66523;SDS011;53350;52.210;5.160;2023-05-23T01:38:33;13.38;;;6.15;;
66523;SDS011;53350;52.210;5.160;2023-05-23T01:40:59;13.23;;;5.80;;
66523;SDS011;53350;52.210;5.160;2023-05-23T01:43:26;17.67;;;6.30;;
66523;SDS011;53350;52.210;5.160;2023-05-23T01:45:54;14.32;;;6.65;;
66523;SDS011;53350;52.210;5.160;2023-05-23T01:48:22;13.82;;;6.32;;
66523;SDS011;53350;52.210;5.160;2023-05-23T01:50:51;15.63;;;6.32;;
66523;SDS011;53350;52.210;5.160;2023-05-23T01:53:19;16.77;;;5.97;;
66523;SDS011;53350;52.210;5.160;2023-05-23T01:55:47;18.42;;;7.53;;
66523;SDS011;53350;52.210;5.160;2023-05-23T01:58:14;16.35;;;6.60;;
66523;SDS011;53350;52.210;5.160;2023-05-23T02:00:40;18.55;;;7.35;;
66523;SDS011;53350;52.210;5.160;2023-05-23T02:03:08;16.63;;;7.00;;
66523;SDS011;53350;52.210;5.160;2023-05-23T02:05:35;15.88;;;7.32;;
66523;SDS011;53350;52.210;5.160;2023-05-23T02:08:02;15.52;;;6.82;;
66523;SDS011;53350;52.210;5.160;2023-05-23T02:10:28;14.43;;;7.13;;
66523;SDS011;53350;52.210;5.160;2023-05-23T02:12:54;22.73;;;7.38;;
66523;SDS011;53350;52.210;5.160;2023-05-23T02:15:21;15.75;;;7.25;;
66523;SDS011;53350;52.210;5.160;2023-05-23T02:17:47;16.20;;;6.72;;
66523;SDS011;53350;52.210;5.160;2023-05-23T02:20:15;22.67;;;6.80;;
66523;SDS011;53350;52.210;5.160;2023-05-23T02:22:42;18.58;;;7.50;;
66523;SDS011;53350;52.210;5.160;2023-05-23T02:25:09;20.45;;;8.45;;
66523;SDS011;53350;52.210;5.160;2023-05-23T02:27:36;19.67;;;7.60;;
66523;SDS011;53350;52.210;5.160;2023-05-23T02:30:02;20.73;;;7.40;;
66523;SDS011;53350;52.210;5.160;2023-05-23T02:32:29;18.65;;;7.38;;
66523;SDS011;53350;52.210;5.160;2023-05-23T02:34:56;21.38;;;7.60;;
66523;SDS011;53350;52.210;5.160;2023-05-23T02:37:25;20.42;;;7.57;;
66523;SDS011;53350;52.210;5.160;2023-05-23T02:39:51;23.83;;;6.82;;
66523;SDS011;53350;52.210;5.160;2023-05-23T02:42:17;17.63;;;7.22;;
66523;SDS011;53350;52.210;5.160;2023-05-23T02:44:44;21.20;;;7.43;;
66523;SDS011;53350;52.210;5.160;2023-05-23T02:47:10;22.85;;;7.97;;
66523;SDS011;53350;52.210;5.160;2023-05-23T02:49:37;21.98;;;7.40;;
66523;SDS011;53350;52.210;5.160;2023-05-23T02:52:03;25.75;;;7.97;;
66523;SDS011;53350;52.210;5.160;2023-05-23T02:54:31;27.25;;;7.50;;
66523;SDS011;53350;52.210;5.160;2023-05-23T02:56:58;22.75;;;7.25;;
66523;SDS011;53350;52.210;5.160;2023-05-23T02:59:25;23.85;;;7.68;;
66523;SDS011;53350;52.210;5.160;2023-05-23T03:01:51;21.83;;;7.18;;
66523;SDS011;53350;52.210;5.160;2023-05-23T03:04:18;21.95;;;8.40;;
66523;SDS011;53350;52.210;5.160;2023-05-23T03:06:45;26.17;;;8.32;;
66523;SDS011;53350;52.210;5.160;2023-05-23T03:09:13;22.35;;;8.23;;
66523;SDS011;53350;52.210;5.160;2023-05-23T03:11:42;23.05;;;7.80;;
66523;SDS011;53350;52.210;5.160;2023-05-23T03:14:08;27.30;;;8.52;;
66523;SDS011;53350;52.210;5.160;2023-05-23T03:16:35;35.30;;;8.18;;
66523;SDS011;53350;52.210;5.160;2023-05-23T03:19:01;23.48;;;8.13;;
66523;SDS011;53350;52.210;5.160;2023-05-23T03:21:28;22.58;;;7.43;;
66523;SDS011;53350;52.210;5.160;2023-05-23T03:23:55;21.92;;;7.50;;
66523;SDS011;53350;52.210;5.160;2023-05-23T03:26:21;17.58;;;6.75;;
66523;SDS011;53350;52.210;5.160;2023-05-23T03:28:49;26.65;;;7.35;;
66523;SDS011;53350;52.210;5.160;2023-05-23T03:31:16;20.25;;;7.45;;
66523;SDS011;53350;52.210;5.160;2023-05-23T03:33:42;20.98;;;6.55;;
66523;SDS011;53350;52.210;5.160;2023-05-23T03:36:09;24.40;;;7.05;;
66523;SDS011;53350;52.210;5.160;2023-05-23T03:38:35;21.95;;;7.13;;
66523;SDS011;53350;52.210;5.160;2023-05-23T03:41:01;24.10;;;6.45;;
66523;SDS011;53350;52.210;5.160;2023-05-23T03:43:28;26.73;;;7.63;;
66523;SDS011;53350;52.210;5.160;2023-05-23T03:45:56;24.90;;;6.72;;
66523;SDS011;53350;52.210;5.160;2023-05-23T03:48:22;22.08;;;7.28;;
66523;SDS011;53350;52.210;5.160;2023-05-23T03:50:48;22.73;;;7.07;;
66523;SDS011;53350;52.210;5.160;2023-05-23T03:53:15;16.45;;;6.15;;
66523;SDS011;53350;52.210;5.160;2023-05-23T03:55:41;23.77;;;6.35;;
66523;SDS011;53350;52.210;5.160;2023-05-23T03:58:08;19.85;;;5.57;;
66523;SDS011;53350;52.210;5.160;2023-05-23T04:00:34;18.80;;;6.10;;
66523;SDS011;53350;52.210;5.160;2023-05-23T04:03:02;23.17;;;6.15;;
66523;SDS011;53350;52.210;5.160;2023-05-23T04:05:28;19.55;;;4.85;;
66523;SDS011;53350;52.210;5.160;2023-05-23T04:07:55;18.88;;;4.88;;
66523;SDS011;53350;52.210;5.160;2023-05-23T04:10:25;14.18;;;4.22;;
66523;SDS011;53350;52.210;5.160;2023-05-23T04:12:51;12.40;;;4.00;;
66523;SDS011;53350;52.210;5.160;2023-05-23T04:15:18;19.00;;;4.63;;
66523;SDS011;53350;52.210;5.160;2023-05-23T04:17:45;17.48;;;4.50;;
66523;SDS011;53350;52.210;5.160;2023-05-23T04:20:13;14.23;;;3.78;;
66523;SDS011;53350;52.210;5.160;2023-05-23T04:22:39;16.20;;;4.50;;
66523;SDS011;53350;52.210;5.160;2023-05-23T04:25:06;19.48;;;4.45;;
66523;SDS011;53350;52.210;5.160;2023-05-23T04:27:33;13.00;;;4.03;;
66523;SDS011;53350;52.210;5.160;2023-05-23T04:30:00;12.65;;;4.43;;
66523;SDS011;53350;52.210;5.160;2023-05-23T04:32:26;9.57;;;3.08;;
66523;SDS011;53350;52.210;5.160;2023-05-23T04:34:53;13.48;;;3.95;;
66523;SDS011;53350;52.210;5.160;2023-05-23T04:37:22;13.70;;;4.63;;
66523;SDS011;53350;52.210;5.160;2023-05-23T04:39:50;15.68;;;4.32;;
66523;SDS011;53350;52.210;5.160;2023-05-23T04:42:17;16.88;;;4.57;;
66523;SDS011;53350;52.210;5.160;2023-05-23T04:44:48;21.10;;;3.83;;
66523;SDS011;53350;52.210;5.160;2023-05-23T04:47:15;14.23;;;4.15;;
66523;SDS011;53350;52.210;5.160;2023-05-23T04:49:41;15.70;;;4.10;;
66523;SDS011;53350;52.210;5.160;2023-05-23T04:52:08;15.65;;;4.43;;
66523;SDS011;53350;52.210;5.160;2023-05-23T04:54:36;20.10;;;4.70;;
66523;SDS011;53350;52.210;5.160;2023-05-23T04:57:08;15.43;;;4.00;;
66523;SDS011;53350;52.210;5.160;2023-05-23T04:59:36;21.10;;;4.85;;
66523;SDS011;53350;52.210;5.160;2023-05-23T05:02:02;12.02;;;4.03;;
66523;SDS011;53350;52.210;5.160;2023-05-23T05:04:29;11.43;;;3.35;;
66523;SDS011;53350;52.210;5.160;2023-05-23T05:06:56;13.77;;;4.10;;
66523;SDS011;53350;52.210;5.160;2023-05-23T05:09:22;14.20;;;3.95;;
66523;SDS011;53350;52.210;5.160;2023-05-23T05:11:51;16.20;;;4.70;;
66523;SDS011;53350;52.210;5.160;2023-05-23T05:14:17;14.05;;;4.55;;
66523;SDS011;53350;52.210;5.160;2023-05-23T05:16:44;14.00;;;3.47;;
66523;SDS011;53350;52.210;5.160;2023-05-23T05:19:11;16.33;;;4.72;;
66523;SDS011;53350;52.210;5.160;2023-05-23T05:21:37;14.63;;;4.07;;
66523;SDS011;53350;52.210;5.160;2023-05-23T05:24:03;20.80;;;4.72;;
66523;SDS011;53350;52.210;5.160;2023-05-23T05:26:30;13.93;;;5.00;;
66523;SDS011;53350;52.210;5.160;2023-05-23T05:28:58;23.27;;;5.80;;
66523;SDS011;53350;52.210;5.160;2023-05-23T05:31:24;14.75;;;4.93;;
66523;SDS011;53350;52.210;5.160;2023-05-23T05:33:51;17.40;;;5.18;;
66523;SDS011;53350;52.210;5.160;2023-05-23T05:36:18;29.42;;;6.00;;
66523;SDS011;53350;52.210;5.160;2023-05-23T05:38:45;16.00;;;5.10;;
66523;SDS011;53350;52.210;5.160;2023-05-23T05:41:12;17.00;;;5.85;;
66523;SDS011;53350;52.210;5.160;2023-05-23T05:43:38;19.13;;;5.63;;
66523;SDS011;53350;52.210;5.160;2023-05-23T05:46:06;18.42;;;5.45;;
66523;SDS011;53350;52.210;5.160;2023-05-23T05:48:33;18.98;;;6.50;;
66523;SDS011;53350;52.210;5.160;2023-05-23T05:50:59;21.88;;;5.93;;
66523;SDS011;53350;52.210;5.160;2023-05-23T05:53:27;16.30;;;5.40;;
66523;SDS011;53350;52.210;5.160;2023-05-23T05:55:53;17.63;;;5.55;;
66523;SDS011;53350;52.210;5.160;2023-05-23T05:58:20;17.15;;;5.70;;
66523;SDS011;53350;52.210;5.160;2023-05-23T06:00:46;17.58;;;5.43;;
66523;SDS011;53350;52.210;5.160;2023-05-23T06:03:15;15.93;;;5.38;;
66523;SDS011;53350;52.210;5.160;2023-05-23T06:05:41;17.90;;;5.82;;
66523;SDS011;53350;52.210;5.160;2023-05-23T06:08:08;11.95;;;4.82;;
66523;SDS011;53350;52.210;5.160;2023-05-23T06:10:36;18.15;;;5.97;;
66523;SDS011;53350;52.210;5.160;2023-05-23T06:13:03;12.68;;;5.30;;
66523;SDS011;53350;52.210;5.160;2023-05-23T06:15:29;20.13;;;5.78;;
66523;SDS011;53350;52.210;5.160;2023-05-23T06:17:56;12.55;;;4.22;;
66523;SDS011;53350;52.210;5.160;2023-05-23T06:20:24;16.15;;;5.07;;
66523;SDS011;53350;52.210;5.160;2023-05-23T06:22:50;16.70;;;5.07;;
66523;SDS011;53350;52.210;5.160;2023-05-23T06:25:16;12.43;;;4.80;;
66523;SDS011;53350;52.210;5.160;2023-05-23T06:27:43;21.13;;;5.47;;
66523;SDS011;53350;52.210;5.160;2023-05-23T06:30:10;14.32;;;5.07;;
66523;SDS011;53350;52.210;5.160;2023-05-23T06:32:38;13.43;;;4.70;;
66523;SDS011;53350;52.210;5.160;2023-05-23T06:35:05;14.48;;;4.75;;
66523;SDS011;53350;52.210;5.160;2023-05-23T06:37:34;14.57;;;3.90;;
66523;SDS011;53350;52.210;5.160;2023-05-23T06:40:00;16.55;;;4.68;;
66523;SDS011;53350;52.210;5.160;2023-05-23T06:42:26;7.35;;;2.60;;
66523;SDS011;53350;52.210;5.160;2023-05-23T06:44:53;16.55;;;3.75;;
66523;SDS011;53350;52.210;5.160;2023-05-23T06:47:20;15.82;;;4.38;;
66523;SDS011;53350;52.210;5.160;2023-05-23T06:49:47;18.35;;;3.85;;
66523;SDS011;53350;52.210;5.160;2023-05-23T06:52:13;14.35;;;3.45;;
66523;SDS011;53350;52.210;5.160;2023-05-23T06:54:42;15.95;;;3.17;;
66523;SDS011;53350;52.210;5.160;2023-05-23T06:57:08;14.45;;;3.10;;
66523;SDS011;53350;52.210;5.160;2023-05-23T06:59:35;13.75;;;2.90;;
66523;SDS011;53350;52.210;5.160;2023-05-23T07:02:01;12.85;;;2.10;;
66523;SDS011;53350;52.210;5.160;2023-05-23T07:04:27;13.48;;;3.00;;
66523;SDS011;53350;52.210;5.160;2023-05-23T07:06:54;9.75;;;2.45;;
66523;SDS011;53350;52.210;5.160;2023-05-23T07:09:20;12.02;;;2.30;;
66523;SDS011;53350;52.210;5.160;2023-05-23T07:11:48;11.82;;;2.10;;
66523;SDS011;53350;52.210;5.160;2023-05-23T07:14:14;15.55;;;2.63;;
66523;SDS011;53350;52.210;5.160;2023-05-23T07:16:41;12.52;;;2.65;;
66523;SDS011;53350;52.210;5.160;2023-05-23T07:19:07;14.55;;;2.78;;
66523;SDS011;53350;52.210;5.160;2023-05-23T07:21:34;19.33;;;3.38;;
66523;SDS011;53350;52.210;5.160;2023-05-23T07:24:01;19.23;;;2.78;;
66523;SDS011;53350;52.210;5.160;2023-05-23T07:26:27;12.65;;;2.92;;
66523;SDS011;53350;52.210;5.160;2023-05-23T07:28:55;14.23;;;3.03;;
66523;SDS011;53350;52.210;5.160;2023-05-23T07:31:21;16.15;;;2.53;;
66523;SDS011;53350;52.210;5.160;2023-05-23T07:33:47;18.42;;;2.97;;
66523;SDS011;53350;52.210;5.160;2023-05-23T07:36:14;17.33;;;2.75;;
66523;SDS011;53350;52.210;5.160;2023-05-23T07:38:41;11.60;;;2.23;;
66523;SDS011;53350;52.210;5.160;2023-05-23T07:41:08;18.48;;;3.05;;
66523;SDS011;53350;52.210;5.160;2023-05-23T07:43:34;15.13;;;2.97;;
66523;SDS011;53350;52.210;5.160;2023-05-23T07:46:02;12.23;;;2.10;;
66523;SDS011;53350;52.210;5.160;2023-05-23T07:48:29;20.50;;;3.05;;
66523;SDS011;53350;52.210;5.160;2023-05-23T07:50:56;22.40;;;3.25;;
66523;SDS011;53350;52.210;5.160;2023-05-23T07:53:22;20.58;;;3.33;;
66523;SDS011;53350;52.210;5.160;2023-05-23T07:55:48;18.83;;;3.33;;
66523;SDS011;53350;52.210;5.160;2023-05-23T07:58:15;18.30;;;2.90;;
66523;SDS011;53350;52.210;5.160;2023-05-23T08:00:41;20.58;;;3.85;;
66523;SDS011;53350;52.210;5.160;2023-05-23T08:03:09;16.95;;;3.42;;
66523;SDS011;53350;52.210;5.160;2023-05-23T08:05:36;15.82;;;2.88;;
66523;SDS011;53350;52.210;5.160;2023-05-23T08:08:03;10.52;;;2.38;;
66523;SDS011;53350;52.210;5.160;2023-05-23T08:10:29;16.48;;;2.15;;
66523;SDS011;53350;52.210;5.160;2023-05-23T08:12:55;16.65;;;3.33;;
66523;SDS011;53350;52.210;5.160;2023-05-23T08:15:24;19.08;;;3.05;;
66523;SDS011;53350;52.210;5.160;2023-05-23T08:17:50;17.33;;;2.70;;
66523;SDS011;53350;52.210;5.160;2023-05-23T08:20:22;19.70;;;3.70;;
66523;SDS011;53350;52.210;5.160;2023-05-23T08:22:54;14.48;;;3.50;;
66523;SDS011;53350;52.210;5.160;2023-05-23T08:25:22;12.40;;;2.97;;
66523;SDS011;53350;52.210;5.160;2023-05-23T08:27:48;16.15;;;3.25;;
66523;SDS011;53350;52.210;5.160;2023-05-23T08:30:15;11.88;;;2.63;;
66523;SDS011;53350;52.210;5.160;2023-05-23T08:32:42;15.77;;;2.70;;
66523;SDS011;53350;52.210;5.160;2023-05-23T08:35:08;19.90;;;3.72;;
66523;SDS011;53350;52.210;5.160;2023-05-23T08:37:36;17.90;;;3.50;;
66523;SDS011;53350;52.210;5.160;2023-05-23T08:40:03;21.00;;;3.33;;
66523;SDS011;53350;52.210;5.160;2023-05-23T08:42:33;16.92;;;2.95;;
66523;SDS011;53350;52.210;5.160;2023-05-23T08:44:59;16.15;;;3.50;;
66523;SDS011;53350;52.210;5.160;2023-05-23T08:47:26;17.25;;;3.05;;
66523;SDS011;53350;52.210;5.160;2023-05-23T08:49:54;15.88;;;3.03;;
66523;SDS011;53350;52.210;5.160;2023-05-23T08:52:21;20.10;;;2.83;;
66523;SDS011;53350;52.210;5.160;2023-05-23T08:54:51;15.05;;;3.17;;
66523;SDS011;53350;52.210;5.160;2023-05-23T08:57:18;15.27;;;3.33;;
66523;SDS011;53350;52.210;5.160;2023-05-23T08:59:44;14.57;;;2.72;;
66523;SDS011;53350;52.210;5.160;2023-05-23T09:02:12;16.63;;;2.93;;
66523;SDS011;53350;52.210;5.160;2023-05-23T09:04:39;17.90;;;3.30;;
66523;SDS011;53350;52.210;5.160;2023-05-23T09:07:07;14.27;;;3.03;;
66523;SDS011;53350;52.210;5.160;2023-05-23T09:09:36;17.95;;;3.08;;
66523;SDS011;53350;52.210;5.160;2023-05-23T09:12:04;14.30;;;2.70;;
66523;SDS011;53350;52.210;5.160;2023-05-23T09:14:31;15.23;;;2.58;;
66523;SDS011;53350;52.210;5.160;2023-05-23T09:17:00;18.40;;;3.40;;
66523;SDS011;53350;52.210;5.160;2023-05-23T09:19:27;14.70;;;2.60;;
66523;SDS011;53350;52.210;5.160;2023-05-23T09:21:54;12.50;;;2.67;;
66523;SDS011;53350;52.210;5.160;2023-05-23T09:24:20;19.67;;;2.95;;
66523;SDS011;53350;52.210;5.160;2023-05-23T09:26:47;12.43;;;2.33;;
66523;SDS011;53350;52.210;5.160;2023-05-23T09:29:16;14.63;;;2.50;;
66523;SDS011;53350;52.210;5.160;2023-05-23T09:31:44;18.42;;;3.08;;
66523;SDS011;53350;52.210;5.160;2023-05-23T09:34:11;13.32;;;2.80;;
66523;SDS011;53350;52.210;5.160;2023-05-23T09:36:37;13.45;;;2.83;;
66523;SDS011;53350;52.210;5.160;2023-05-23T09:39:08;18.02;;;3.42;;
66523;SDS011;53350;52.210;5.160;2023-05-23T09:41:36;11.40;;;2.28;;
66523;SDS011;53350;52.210;5.160;2023-05-23T09:44:06;20.67;;;3.30;;
66523;SDS011;53350;52.210;5.160;2023-05-23T09:46:36;14.57;;;3.58;;
66523;SDS011;53350;52.210;5.160;2023-05-23T09:49:09;17.08;;;2.80;;
66523;SDS011;53350;52.210;5.160;2023-05-23T09:51:41;10.73;;;2.38;;
66523;SDS011;53350;52.210;5.160;2023-05-23T09:54:07;12.35;;;2.50;;
66523;SDS011;53350;52.210;5.160;2023-05-23T09:56:34;16.70;;;2.55;;
66523;SDS011;53350;52.210;5.160;2023-05-23T09:59:07;13.82;;;2.33;;
66523;SDS011;53350;52.210;5.160;2023-05-23T10:01:39;14.00;;;2.63;;
66523;SDS011;53350;52.210;5.160;2023-05-23T10:04:07;15.40;;;3.40;;
66523;SDS011;53350;52.210;5.160;2023-05-23T10:06:37;20.55;;;2.92;;
66523;SDS011;53350;52.210;5.160;2023-05-23T10:09:08;15.52;;;3.08;;
66523;SDS011;53350;52.210;5.160;2023-05-23T10:15:04;17.38;;;2.25;;
66523;SDS011;53350;52.210;5.160;2023-05-23T10:17:39;16.67;;;3.38;;
66523;SDS011;53350;52.210;5.160;2023-05-23T10:20:19;12.57;;;2.38;;
66523;SDS011;53350;52.210;5.160;2023-05-23T10:22:50;14.98;;;3.60;;
66523;SDS011;53350;52.210;5.160;2023-05-23T10:25:17;11.73;;;2.55;;
66523;SDS011;53350;52.210;5.160;2023-05-23T10:27:44;12.18;;;2.30;;
66523;SDS011;53350;52.210;5.160;2023-05-23T10:30:14;14.23;;;2.70;;
66523;SDS011;53350;52.210;5.160;2023-05-23T10:32:42;16.45;;;3.05;;
66523;SDS011;53350;52.210;5.160;2023-05-23T10:35:09;15.13;;;3.50;;
66523;SDS011;53350;52.210;5.160;2023-05-23T10:37:44;16.90;;;2.85;;
66523;SDS011;53350;52.210;5.160;2023-05-23T10:40:19;17.52;;;3.28;;
66523;SDS011;53350;52.210;5.160;2023-05-23T10:42:53;14.25;;;2.30;;
66523;SDS011;53350;52.210;5.160;2023-05-23T10:45:27;16.00;;;3.03;;
66523;SDS011;53350;52.210;5.160;2023-05-23T10:47:54;17.20;;;2.90;;
66523;SDS011;53350;52.210;5.160;2023-05-23T10:50:31;15.90;;;2.50;;
66523;SDS011;53350;52.210;5.160;2023-05-23T10:52:58;12.37;;;2.50;;
66523;SDS011;53350;52.210;5.160;2023-05-23T10:55:29;11.63;;;2.17;;
66523;SDS011;53350;52.210;5.160;2023-05-23T10:58:09;13.00;;;2.63;;
66523;SDS011;53350;52.210;5.160;2023-05-23T11:00:36;14.05;;;2.70;;
66523;SDS011;53350;52.210;5.160;2023-05-23T11:03:05;10.55;;;2.40;;
66523;SDS011;53350;52.210;5.160;2023-05-23T11:05:33;12.57;;;2.25;;
66523;SDS011;53350;52.210;5.160;2023-05-23T11:08:05;17.17;;;2.40;;
66523;SDS011;53350;52.210;5.160;2023-05-23T11:13:19;13.85;;;2.88;;
66523;SDS011;53350;52.210;5.160;2023-05-23T11:15:46;18.27;;;3.47;;
66523;SDS011;53350;52.210;5.160;2023-05-23T11:18:20;12.85;;;2.30;;
66523;SDS011;53350;52.210;5.160;2023-05-23T11:20:48;21.00;;;3.08;;
66523;SDS011;53350;52.210;5.160;2023-05-23T11:23:17;18.45;;;3.30;;
66523;SDS011;53350;52.210;5.160;2023-05-23T11:25:44;13.35;;;2.38;;
66523;SDS011;53350;52.210;5.160;2023-05-23T11:28:12;14.15;;;2.30;;
66523;SDS011;53350;52.210;5.160;2023-05-23T11:30:39;17.65;;;2.60;;
66523;SDS011;53350;52.210;5.160;2023-05-23T11:33:06;18.65;;;2.60;;
66523;SDS011;53350;52.210;5.160;2023-05-23T11:35:36;13.90;;;3.40;;
66523;SDS011;53350;52.210;5.160;2023-05-23T11:38:03;10.60;;;2.22;;
66523;SDS011;53350;52.210;5.160;2023-05-23T11:40:30;11.63;;;2.47;;
66523;SDS011;53350;52.210;5.160;2023-05-23T11:42:59;14.88;;;2.53;;
66523;SDS011;53350;52.210;5.160;2023-05-23T11:45:26;14.32;;;2.35;;
66523;SDS011;53350;52.210;5.160;2023-05-23T11:47:54;12.02;;;2.15;;
66523;SDS011;53350;52.210;5.160;2023-05-23T11:50:21;11.82;;;2.55;;
66523;SDS011;53350;52.210;5.160;2023-05-23T11:52:49;11.93;;;2.50;;
66523;SDS011;53350;52.210;5.160;2023-05-23T11:55:16;13.40;;;2.42;;
66523;SDS011;53350;52.210;5.160;2023-05-23T11:57:43;13.93;;;2.43;;
66523;SDS011;53350;52.210;5.160;2023-05-23T12:00:10;15.18;;;3.00;;
66523;SDS011;53350;52.210;5.160;2023-05-23T12:02:38;19.15;;;3.85;;
66523;SDS011;53350;52.210;5.160;2023-05-23T12:05:08;14.23;;;2.50;;
66523;SDS011;53350;52.210;5.160;2023-05-23T12:07:35;15.10;;;2.90;;
66523;SDS011;53350;52.210;5.160;2023-05-23T12:10:07;16.70;;;2.70;;
66523;SDS011;53350;52.210;5.160;2023-05-23T12:12:34;12.00;;;2.40;;
66523;SDS011;53350;52.210;5.160;2023-05-23T12:15:01;10.75;;;3.00;;
66523;SDS011;53350;52.210;5.160;2023-05-23T12:17:28;16.17;;;2.97;;
66523;SDS011;53350;52.210;5.160;2023-05-23T12:19:55;18.48;;;2.80;;
66523;SDS011;53350;52.210;5.160;2023-05-23T12:22:21;13.40;;;3.35;;
66523;SDS011;53350;52.210;5.160;2023-05-23T12:24:51;14.73;;;3.50;;
66523;SDS011;53350;52.210;5.160;2023-05-23T12:27:25;18.10;;;2.85;;
66523;SDS011;53350;52.210;5.160;2023-05-23T12:29:54;14.27;;;2.90;;
66523;SDS011;53350;52.210;5.160;2023-05-23T12:32:30;14.10;;;3.35;;
66523;SDS011;53350;52.210;5.160;2023-05-23T12:34:56;15.73;;;3.03;;
66523;SDS011;53350;52.210;5.160;2023-05-23T12:37:23;17.45;;;3.03;;
66523;SDS011;53350;52.210;5.160;2023-05-23T12:39:49;11.73;;;1.98;;
66523;SDS011;53350;52.210;5.160;2023-05-23T12:42:16;13.60;;;3.03;;
66523;SDS011;53350;52.210;5.160;2023-05-23T12:44:43;14.95;;;3.25;;
66523;SDS011;53350;52.210;5.160;2023-05-23T12:47:12;15.05;;;2.25;;
66523;SDS011;53350;52.210;5.160;2023-05-23T12:49:39;9.50;;;2.35;;
66523;SDS011;53350;52.210;5.160;2023-05-23T12:52:05;14.57;;;2.63;;
66523;SDS011;53350;52.210;5.160;2023-05-23T12:54:32;14.68;;;2.63;;
66523;SDS011;53350;52.210;5.160;2023-05-23T12:56:58;15.48;;;3.03;;
66523;SDS011;53350;52.210;5.160;2023-05-23T12:59:25;18.15;;;2.70;;
66523;SDS011;53350;52.210;5.160;2023-05-23T13:01:54;13.37;;;2.67;;
66523;SDS011;53350;52.210;5.160;2023-05-23T13:04:20;13.95;;;3.33;;
66523;SDS011;53350;52.210;5.160;2023-05-23T13:06:46;14.93;;;2.63;;
66523;SDS011;53350;52.210;5.160;2023-05-23T13:09:13;14.93;;;3.00;;
66523;SDS011;53350;52.210;5.160;2023-05-23T13:11:40;18.08;;;2.47;;
66523;SDS011;53350;52.210;5.160;2023-05-23T13:14:06;16.65;;;2.67;;
66523;SDS011;53350;52.210;5.160;2023-05-23T13:16:33;10.88;;;2.08;;
66523;SDS011;53350;52.210;5.160;2023-05-23T13:19:01;13.63;;;2.10;;
66523;SDS011;53350;52.210;5.160;2023-05-23T13:21:27;11.18;;;2.15;;
66523;SDS011;53350;52.210;5.160;2023-05-23T13:23:55;10.73;;;2.15;;
66523;SDS011;53350;52.210;5.160;2023-05-23T13:26:22;18.02;;;2.95;;
66523;SDS011;53350;52.210;5.160;2023-05-23T13:28:48;14.70;;;3.00;;
66523;SDS011;53350;52.210;5.160;2023-05-23T13:31:14;10.38;;;2.47;;
66523;SDS011;53350;52.210;5.160;2023-05-23T13:33:41;12.65;;;2.33;;
66523;SDS011;53350;52.210;5.160;2023-05-23T13:36:09;11.98;;;2.88;;
66523;SDS011;53350;52.210;5.160;2023-05-23T13:38:36;11.40;;;2.38;;
66523;SDS011;53350;52.210;5.160;2023-05-23T13:41:02;14.65;;;2.42;;
66523;SDS011;53350;52.210;5.160;2023-05-23T13:43:28;10.85;;;2.03;;
66523;SDS011;53350;52.210;5.160;2023-05-23T13:45:55;16.23;;;2.72;;
66523;SDS011;53350;52.210;5.160;2023-05-23T13:48:21;13.98;;;2.25;;
66523;SDS011;53350;52.210;5.160;2023-05-23T13:50:48;12.93;;;2.50;;
66523;SDS011;53350;52.210;5.160;2023-05-23T13:53:15;13.68;;;2.33;;
66523;SDS011;53350;52.210;5.160;2023-05-23T13:55:42;14.43;;;1.92;;
66523;SDS011;53350;52.210;5.160;2023-05-23T13:58:10;13.40;;;2.15;;
66523;SDS011;53350;52.210;5.160;2023-05-23T14:00:36;15.35;;;2.65;;
66523;SDS011;53350;52.210;5.160;2023-05-23T14:03:03;20.52;;;3.20;;
66523;SDS011;53350;52.210;5.160;2023-05-23T14:05:29;18.48;;;2.90;;
66523;SDS011;53350;52.210;5.160;2023-05-23T14:07:56;10.32;;;2.15;;
66523;SDS011;53350;52.210;5.160;2023-05-23T14:10:24;16.88;;;3.53;;
66523;SDS011;53350;52.210;5.160;2023-05-23T14:12:50;12.43;;;2.47;;
66523;SDS011;53350;52.210;5.160;2023-05-23T14:15:17;12.98;;;2.50;;
66523;SDS011;53350;52.210;5.160;2023-05-23T14:17:43;12.95;;;2.55;;
66523;SDS011;53350;52.210;5.160;2023-05-23T14:20:10;11.45;;;2.38;;
66523;SDS011;53350;52.210;5.160;2023-05-23T14:22:36;12.82;;;2.75;;
66523;SDS011;53350;52.210;5.160;2023-05-23T14:25:03;16.85;;;3.20;;
66523;SDS011;53350;52.210;5.160;2023-05-23T14:27:32;13.30;;;2.37;;
66523;SDS011;53350;52.210;5.160;2023-05-23T14:29:58;9.00;;;2.05;;
66523;SDS011;53350;52.210;5.160;2023-05-23T14:32:25;7.70;;;1.90;;
66523;SDS011;53350;52.210;5.160;2023-05-23T14:34:51;11.70;;;2.38;;
66523;SDS011;53350;52.210;5.160;2023-05-23T14:37:19;9.17;;;2.00;;
66523;SDS011;53350;52.210;5.160;2023-05-23T14:39:45;12.82;;;2.10;;
66523;SDS011;53350;52.210;5.160;2023-05-23T14:42:12;11.90;;;2.30;;